sensor_id;sensor_type;location;lat;lon;timestamp;pressure;altitude;pressure_sealevel;temperature;humidity
30338;BME280;17143;51.888;5.408;2023-06-14T00:00:08;101334.72;;;21.54;42.03
30338;BME280;17143;51.888;5.408;2023-06-14T00:15:11;101333.38;;;21.28;42.52
30338;BME280;17143;51.888;5.408;2023-06-14T00:30:14;101339.06;;;21.05;42.53
30338;BME280;17143;51.888;5.408;2023-06-14T00:45:16;101335.09;;;20.82;43.17
30338;BME280;17143;51.888;5.408;2023-06-14T01:00:18;101333.88;;;20.65;43.97
30338;BME280;17143;51.888;5.408;2023-06-14T01:15:20;101333.34;;;20.42;44.29
30338;BME280;17143;51.888;5.408;2023-06-14T01:30:23;101336.50;;;20.25;44.65
30338;BME280;17143;51.888;5.408;2023-06-14T01:45:25;101343.00;;;20.04;45.56
30338;BME280;17143;51.888;5.408;2023-06-14T02:00:27;101337.22;;;19.83;46.29
30338;BME280;17143;51.888;5.408;2023-06-14T02:15:30;101326.16;;;19.64;46.93
30338;BME280;17143;51.888;5.408;2023-06-14T02:30:32;101334.56;;;19.49;47.62
30338;BME280;17143;51.888;5.408;2023-06-14T02:45:34;101344.53;;;19.28;47.79
30338;BME280;17143;51.888;5.408;2023-06-14T03:00:36;101343.16;;;19.09;48.85
30338;BME280;17143;51.888;5.408;2023-06-14T03:15:39;101357.59;;;18.91;49.44
30338;BME280;17143;51.888;5.408;2023-06-14T03:30:42;101365.84;;;18.71;50.39
30338;BME280;17143;51.888;5.408;2023-06-14T03:45:44;101378.66;;;18.59;51.01
30338;BME280;17143;51.888;5.408;2023-06-14T04:00:47;101394.47;;;18.58;52.00
30338;BME280;17143;51.888;5.408;2023-06-14T04:15:49;101394.47;;;18.58;52.61
30338;BME280;17143;51.888;5.408;2023-06-14T04:30:58;101407.88;;;18.65;52.77
30338;BME280;17143;51.888;5.408;2023-06-14T04:46:00;101416.28;;;22.13;45.66
30338;BME280;17143;51.888;5.408;2023-06-14T05:01:02;101414.31;;;24.07;41.73
30338;BME280;17143;51.888;5.408;2023-06-14T05:16:05;101428.25;;;24.91;38.95
30338;BME280;17143;51.888;5.408;2023-06-14T05:31:07;101440.78;;;25.04;38.02
30338;BME280;17143;51.888;5.408;2023-06-14T05:46:09;101450.66;;;25.36;37.98
30338;BME280;17143;51.888;5.408;2023-06-14T06:01:11;101472.03;;;25.38;37.83
30338;BME280;17143;51.888;5.408;2023-06-14T06:16:14;101473.00;;;25.49;37.47
30338;BME280;17143;51.888;5.408;2023-06-14T06:31:16;101484.44;;;25.27;37.74
30338;BME280;17143;51.888;5.408;2023-06-14T06:46:18;101509.44;;;25.47;37.76
30338;BME280;17143;51.888;5.408;2023-06-14T07:01:20;101517.56;;;25.65;37.69
30338;BME280;17143;51.888;5.408;2023-06-14T07:16:23;101525.59;;;25.77;37.94
30338;BME280;17143;51.888;5.408;2023-06-14T07:31:25;101531.00;;;26.11;37.93
30338;BME280;17143;51.888;5.408;2023-06-14T07:46:27;101551.59;;;26.45;36.47
30338;BME280;17143;51.888;5.408;2023-06-14T08:01:29;101558.69;;;26.28;36.17
30338;BME280;17143;51.888;5.408;2023-06-14T08:16:31;101570.31;;;26.98;34.76
30338;BME280;17143;51.888;5.408;2023-06-14T08:31:33;101574.69;;;27.34;33.08
30338;BME280;17143;51.888;5.408;2023-06-14T08:46:36;101566.56;;;27.65;31.96
30338;BME280;17143;51.888;5.408;2023-06-14T09:01:38;101561.13;;;27.87;31.12
30338;BME280;17143;51.888;5.408;2023-06-14T09:16:41;101572.56;;;28.19;29.58
30338;BME280;17143;51.888;5.408;2023-06-14T09:31:46;101575.91;;;28.50;30.15
30338;BME280;17143;51.888;5.408;2023-06-14T09:46:48;101572.16;;;28.78;28.66
30338;BME280;17143;51.888;5.408;2023-06-14T10:01:50;101575.63;;;28.86;28.08
30338;BME280;17143;51.888;5.408;2023-06-14T10:17:02;101570.44;;;28.68;27.03
30338;BME280;17143;51.888;5.408;2023-06-14T10:32:08;101565.91;;;28.77;27.82
30338;BME280;17143;51.888;5.408;2023-06-14T10:47:31;101553.75;;;29.30;27.31
30338;BME280;17143;51.888;5.408;2023-06-14T11:02:48;101550.81;;;29.51;28.16
30338;BME280;17143;51.888;5.408;2023-06-14T11:17:53;101545.50;;;29.48;28.52
30338;BME280;17143;51.888;5.408;2023-06-14T11:32:55;101560.13;;;29.15;29.25
30338;BME280;17143;51.888;5.408;2023-06-14T11:47:58;101540.38;;;29.27;28.89
30338;BME280;17143;51.888;5.408;2023-06-14T12:03:00;101550.16;;;29.32;28.36
30338;BME280;17143;51.888;5.408;2023-06-14T12:18:05;101549.19;;;29.38;27.84
30338;BME280;17143;51.888;5.408;2023-06-14T12:33:07;101550.31;;;29.17;27.88
30338;BME280;17143;51.888;5.408;2023-06-14T12:48:09;101551.69;;;28.66;28.30
30338;BME280;17143;51.888;5.408;2023-06-14T13:03:11;101550.38;;;29.08;27.90
30338;BME280;17143;51.888;5.408;2023-06-14T13:18:13;101551.56;;;28.80;28.25
30338;BME280;17143;51.888;5.408;2023-06-14T13:33:15;101570.25;;;28.89;28.44
30338;BME280;17143;51.888;5.408;2023-06-14T13:48:17;101557.94;;;28.67;28.71
30338;BME280;17143;51.888;5.408;2023-06-14T14:03:20;101546.72;;;29.15;29.43
30338;BME280;17143;51.888;5.408;2023-06-14T14:18:22;101549.56;;;29.02;30.01
30338;BME280;17143;51.888;5.408;2023-06-14T14:33:24;101539.50;;;29.23;28.96
30338;BME280;17143;51.888;5.408;2023-06-14T14:48:26;101545.38;;;28.72;28.96
30338;BME280;17143;51.888;5.408;2023-06-14T15:03:28;101537.16;;;28.90;28.37
30338;BME280;17143;51.888;5.408;2023-06-14T15:18:30;101547.06;;;28.82;28.49
30338;BME280;17143;51.888;5.408;2023-06-14T15:33:33;101539.28;;;28.50;29.35
30338;BME280;17143;51.888;5.408;2023-06-14T15:48:35;101546.53;;;28.36;29.47
30338;BME280;17143;51.888;5.408;2023-06-14T16:03:37;101543.06;;;28.25;29.64
30338;BME280;17143;51.888;5.408;2023-06-14T16:18:39;101537.81;;;28.08;30.35
30338;BME280;17143;51.888;5.408;2023-06-14T16:33:41;101525.34;;;28.03;30.72
30338;BME280;17143;51.888;5.408;2023-06-14T16:48:43;101529.06;;;27.70;30.82
30338;BME280;17143;51.888;5.408;2023-06-14T17:03:45;101540.78;;;27.45;30.88
30338;BME280;17143;51.888;5.408;2023-06-14T17:19:24;101540.81;;;27.11;31.91
30338;BME280;17143;51.888;5.408;2023-06-14T17:34:26;101562.28;;;26.99;32.94
30338;BME280;17143;51.888;5.408;2023-06-14T18:05:36;101571.13;;;26.23;31.93
30338;BME280;17143;51.888;5.408;2023-06-14T18:20:38;101574.59;;;25.96;33.31
30338;BME280;17143;51.888;5.408;2023-06-14T18:35:40;101587.88;;;25.79;33.89
30338;BME280;17143;51.888;5.408;2023-06-14T18:50:42;101595.81;;;25.58;35.97
30338;BME280;17143;51.888;5.408;2023-06-14T19:05:44;101596.47;;;25.27;37.01
30338;BME280;17143;51.888;5.408;2023-06-14T19:20:46;101604.38;;;25.09;37.94
30338;BME280;17143;51.888;5.408;2023-06-14T19:35:49;101616.69;;;24.89;38.70
30338;BME280;17143;51.888;5.408;2023-06-14T19:50:51;101627.91;;;24.60;39.42
30338;BME280;17143;51.888;5.408;2023-06-14T20:05:53;101648.00;;;24.28;40.42
30338;BME280;17143;51.888;5.408;2023-06-14T20:20:55;101656.50;;;23.98;41.66
30338;BME280;17143;51.888;5.408;2023-06-14T20:35:57;101660.47;;;23.64;42.69
30338;BME280;17143;51.888;5.408;2023-06-14T20:50:59;101662.88;;;23.46;43.18
30338;BME280;17143;51.888;5.408;2023-06-14T21:06:01;101678.41;;;23.19;44.32
30338;BME280;17143;51.888;5.408;2023-06-14T21:21:03;101688.56;;;22.93;45.26
30338;BME280;17143;51.888;5.408;2023-06-14T21:36:05;101688.28;;;22.77;45.57
30338;BME280;17143;51.888;5.408;2023-06-14T21:51:08;101688.59;;;22.49;47.06
30338;BME280;17143;51.888;5.408;2023-06-14T22:06:10;101695.97;;;22.18;47.63
30338;BME280;17143;51.888;5.408;2023-06-14T22:21:12;101707.91;;;21.98;48.38
30338;BME280;17143;51.888;5.408;2023-06-14T22:36:14;101707.53;;;21.83;48.82
30338;BME280;17143;51.888;5.408;2023-06-14T22:51:17;101697.34;;;21.62;49.32
30338;BME280;17143;51.888;5.408;2023-06-14T23:06:20;101695.94;;;21.41;50.11
30338;BME280;17143;51.888;5.408;2023-06-14T23:21:22;101704.38;;;21.23;50.70
30338;BME280;17143;51.888;5.408;2023-06-14T23:36:24;101708.22;;;21.03;50.71
30338;BME280;17143;51.888;5.408;2023-06-14T23:51:26;101715.75;;;20.86;51.18
